map of RCH home
RCH - Airport
Location
City:  Riohacha, La Guajira, Colombia
Near (Alt.):Rio Hacha
Name:Almirante Padilla Airport
ICAO:SKRH
IATA:RCH

Details
Type:Airport (Aerodrome, Airfield)
Latitude:11°31'25"N (11.523556)
Longitude:72°55'38"W (-72.927138)
Elevation:43 ft (13 m)
Variation:8.95°W (WMM2015 magnetic declination)
-0.12° annual change
Runways:1
Longest:5413 × 98 ft (1650 × 30 m), paved

Time
Time Zone:UTC-5
Local Time:

Weather
METAR:SKRH 162000Z 12018KT 9999 FEW017 33/18 A2982

Related Locations
Nearby:
Farthest:XCH: 12321 mi / 19829 km
Christmas Island, CX

Find:

   beyond  
but within

Other Information
Maps:
NOTAMs:
Links:
Sources:

  
flag of Colombia
flag of La Guajira
  

Sectional Chart

Flight Planning
at skyvector.com

Satellite Image

Google Maps Satellite view

 

Copyright © 2004-2017 Karl L. Swartz. All rights reserved.
The Great Circle Mapper name and logo are trademarks of the Great Circle Mapper.
All other trademarks mentioned herein belong to their respective owners.
Please see credits for attibutions and further copyright information.

  Follow gcmap on Facebook Follow gcmap on Twitter Follow gcmap on Google+ GCmap on LinkedIn

hCard Microformat

Geo Microformat